Time,TemperatureF,DewpointF,PressureIn,WindDirection,WindDirectionDegrees,WindSpeedMPH,WindSpeedGustMPH,Humidity,HourlyPrecipIn,Conditions,Clouds,dailyrainin,SoftwareType,DateUTC
2013-01-09 00:02:00,31.2,27.8,30.17,SW,222,3.0,8.0,87,0.00,,---,0.00,VWS V14.01,2013-01-09 06:02:00,
2013-01-09 00:08:00,31.1,27.4,30.17,SSW,213,5.0,8.0,86,0.00,,---,0.00,VWS V14.01,2013-01-09 06:08:00,
2013-01-09 00:15:00,30.8,27.1,30.17,SSW,205,4.0,8.0,86,0.00,,---,0.00,VWS V14.01,2013-01-09 06:15:00,
2013-01-09 00:21:00,30.6,26.9,30.18,SSW,206,3.0,8.0,86,0.00,,---,0.00,VWS V14.01,2013-01-09 06:21:00,
2013-01-09 00:27:00,30.3,26.6,30.18,SSW,209,4.0,8.0,86,0.00,,---,0.00,VWS V14.01,2013-01-09 06:27:00,
2013-01-09 00:33:00,30.0,26.6,30.18,SW,215,5.0,6.0,87,0.00,,---,0.00,VWS V14.01,2013-01-09 06:33:00,
2013-01-09 00:39:00,29.9,26.5,30.18,SSW,207,1.0,6.0,87,0.00,,---,0.00,VWS V14.01,2013-01-09 06:39:00,
2013-01-09 00:45:00,29.8,26.4,30.19,SSW,208,0.0,6.0,87,0.00,,---,0.00,VWS V14.01,2013-01-09 06:45:00,
2013-01-09 00:51:00,29.9,26.5,30.19,SSW,208,0.0,6.0,87,0.00,,---,0.00,VWS V14.01,2013-01-09 06:51:00,
2013-01-09 00:57:00,29.9,26.5,30.20,SSW,207,0.0,6.0,87,0.00,,---,0.00,VWS V14.01,2013-01-09 06:57:00,
2013-01-09 01:03:00,29.8,26.4,30.20,SSW,208,0.0,0.0,87,0.00,,---,0.00,VWS V14.01,2013-01-09 07:03:00,
2013-01-09 01:09:00,29.8,26.4,30.21,SSW,208,0.0,0.0,87,0.00,,---,0.00,VWS V14.01,2013-01-09 07:09:00,
2013-01-09 01:15:00,29.7,26.3,30.21,SSW,208,0.0,0.0,87,0.00,,---,0.00,VWS V14.01,2013-01-09 07:15:00,
2013-01-09 01:21:00,29.7,26.3,30.22,SSW,211,0.0,3.0,87,0.00,,---,0.00,VWS V14.01,2013-01-09 07:21:00,
2013-01-09 01:27:00,29.7,26.3,30.22,SW,218,4.0,5.0,87,0.00,,---,0.00,VWS V14.01,2013-01-09 07:27:00,
2013-01-09 01:33:00,29.6,26.2,30.22,SW,219,7.0,8.0,87,0.00,,---,0.00,VWS V14.01,2013-01-09 07:33:00,
2013-01-09 01:39:00,29.2,25.8,30.23,SSW,213,4.0,8.0,87,0.00,,---,0.00,VWS V14.01,2013-01-09 07:39:00,
2013-01-09 01:45:00,29.0,25.9,30.23,SSW,210,0.0,8.0,88,0.00,,---,0.00,VWS V14.01,2013-01-09 07:45:00,
2013-01-09 01:51:00,29.2,26.1,30.23,SSW,211,0.0,8.0,88,0.00,,---,0.00,VWS V14.01,2013-01-09 07:51:00,
2013-01-09 01:57:00,29.1,25.7,30.24,SW,217,7.0,8.0,87,0.00,,---,0.00,VWS V14.01,2013-01-09 07:57:00,
2013-01-09 02:03:00,28.8,25.4,30.25,SW,214,4.0,7.0,87,0.00,,---,0.00,VWS V14.01,2013-01-09 08:03:00,
2013-01-09 02:09:00,28.8,25.7,30.25,SW,215,8.0,8.0,88,0.00,,---,0.00,VWS V14.01,2013-01-09 08:09:00,
2013-01-09 02:15:00,28.5,25.4,30.25,SW,219,7.0,9.0,88,0.00,,---,0.00,VWS V14.01,2013-01-09 08:15:00,
2013-01-09 02:21:00,28.4,25.3,30.25,SSW,207,4.0,10.0,88,0.00,,---,0.00,VWS V14.01,2013-01-09 08:21:00,
2013-01-09 02:28:00,28.6,25.5,30.26,SSW,210,2.0,10.0,88,0.00,,---,0.00,VWS V14.01,2013-01-09 08:28:00,
2013-01-09 02:34:00,28.6,25.5,30.26,SW,214,4.0,7.0,88,0.00,,---,0.00,VWS V14.01,2013-01-09 08:34:00,
2013-01-09 02:40:00,28.7,25.6,30.26,SSW,211,4.0,7.0,88,0.00,,---,0.00,VWS V14.01,2013-01-09 08:40:00,
2013-01-09 02:46:00,28.9,25.8,30.26,SW,215,0.0,7.0,88,0.00,,---,0.00,VWS V14.01,2013-01-09 08:46:00,
2013-01-09 02:52:00,29.6,26.5,30.27,SW,216,0.0,7.0,88,0.00,,---,0.00,VWS V14.01,2013-01-09 08:52:00,
2013-01-09 02:58:00,29.4,26.0,30.27,SW,217,0.0,7.0,87,0.00,,---,0.00,VWS V14.01,2013-01-09 08:58:00,
2013-01-09 03:04:00,28.8,25.1,30.27,SW,217,0.0,0.0,86,0.00,,---,0.00,VWS V14.01,2013-01-09 09:04:00,
2013-01-09 03:10:00,28.3,24.7,30.27,SW,217,0.0,0.0,86,0.00,,---,0.00,VWS V14.01,2013-01-09 09:10:00,
2013-01-09 03:16:00,28.0,24.6,30.27,SW,217,0.0,0.0,87,0.00,,---,0.00,VWS V14.01,2013-01-09 09:16:00,
2013-01-09 03:22:00,28.4,25.0,30.27,SW,217,0.0,0.0,87,0.00,,---,0.00,VWS V14.01,2013-01-09 09:22:00,
2013-01-09 03:28:00,28.8,25.4,30.28,SW,217,0.0,0.0,87,0.00,,---,0.00,VWS V14.01,2013-01-09 09:28:00,
2013-01-09 03:34:00,29.2,25.5,30.28,SW,217,0.0,0.0,86,0.00,,---,0.00,VWS V14.01,2013-01-09 09:34:00,
2013-01-09 03:40:00,29.2,25.5,30.29,SW,217,0.0,0.0,86,0.00,,---,0.00,VWS V14.01,2013-01-09 09:40:00,
2013-01-09 03:46:00,29.4,25.7,30.30,SW,217,0.0,0.0,86,0.00,,---,0.00,VWS V14.01,2013-01-09 09:46:00,
2013-01-09 03:52:00,29.6,25.9,30.30,SW,217,0.0,0.0,86,0.00,,---,0.00,VWS V14.01,2013-01-09 09:52:00,
2013-01-09 03:58:00,29.7,25.8,30.29,SW,217,0.0,0.0,85,0.00,,---,0.00,VWS V14.01,2013-01-09 09:58:00,
2013-01-09 04:04:00,29.9,26.0,30.29,SW,217,0.0,0.0,85,0.00,,---,0.00,VWS V14.01,2013-01-09 10:04:00,
2013-01-09 04:10:00,29.7,25.5,30.30,SW,217,0.0,0.0,84,0.00,,---,0.00,VWS V14.01,2013-01-09 10:10:00,
2013-01-09 04:16:00,29.6,25.6,30.30,SW,217,0.0,0.0,85,0.00,,---,0.00,VWS V14.01,2013-01-09 10:16:00,
2013-01-09 04:22:00,30.0,26.0,30.29,SW,217,0.0,0.0,85,0.00,,---,0.00,VWS V14.01,2013-01-09 10:22:00,
2013-01-09 04:28:00,30.2,26.2,30.29,SW,217,0.0,0.0,85,0.00,,---,0.00,VWS V14.01,2013-01-09 10:28:00,
2013-01-09 04:35:00,30.2,26.0,30.29,SW,217,0.0,0.0,84,0.00,,---,0.00,VWS V14.01,2013-01-09 10:35:00,
2013-01-09 04:41:00,29.6,25.1,30.29,SW,217,0.0,0.0,83,0.00,,---,0.00,VWS V14.01,2013-01-09 10:41:00,
2013-01-09 04:47:00,28.8,24.3,30.28,SW,217,0.0,0.0,83,0.00,,---,0.00,VWS V14.01,2013-01-09 10:47:00,
2013-01-09 04:53:00,28.4,24.2,30.28,SW,217,0.0,0.0,84,0.00,,---,0.00,VWS V14.01,2013-01-09 10:53:00,
2013-01-09 04:59:00,28.5,24.6,30.28,SW,217,0.0,0.0,85,0.00,,---,0.00,VWS V14.01,2013-01-09 10:59:00,
2013-01-09 05:05:00,28.8,24.9,30.28,SW,217,0.0,0.0,85,0.00,,---,0.00,VWS V14.01,2013-01-09 11:05:00,
2013-01-09 05:11:00,29.0,25.1,30.28,SW,217,0.0,0.0,85,0.00,,---,0.00,VWS V14.01,2013-01-09 11:11:00,
2013-01-09 05:17:00,28.8,24.6,30.27,SW,218,0.0,0.0,84,0.00,,---,0.00,VWS V14.01,2013-01-09 11:17:00,
2013-01-09 05:23:00,28.9,25.0,30.27,SW,218,0.0,0.0,85,0.00,,---,0.00,VWS V14.01,2013-01-09 11:23:00,
2013-01-09 05:29:00,28.5,24.3,30.27,SW,214,0.0,0.0,84,0.00,,---,0.00,VWS V14.01,2013-01-09 11:29:00,
2013-01-09 05:35:00,28.2,24.3,30.28,SSW,208,4.0,6.0,85,0.00,,---,0.00,VWS V14.01,2013-01-09 11:35:00,
2013-01-09 05:41:00,28.3,24.7,30.28,SSW,211,0.0,6.0,86,0.00,,---,0.00,VWS V14.01,2013-01-09 11:41:00,
2013-01-09 05:47:00,28.8,25.1,30.28,SSW,211,0.0,6.0,86,0.00,,---,0.00,VWS V14.01,2013-01-09 11:47:00,
2013-01-09 05:53:00,29.0,25.1,30.28,SW,217,5.0,6.0,85,0.00,,---,0.00,VWS V14.01,2013-01-09 11:53:00,
2013-01-09 05:59:00,29.1,25.2,30.29,SSW,213,2.0,6.0,85,0.00,,---,0.00,VWS V14.01,2013-01-09 11:59:00,
2013-01-09 06:05:00,29.2,25.3,30.29,SSW,213,3.0,4.0,85,0.00,,---,0.00,VWS V14.01,2013-01-09 12:05:00,
2013-01-09 06:11:00,29.1,25.2,30.29,SW,215,5.0,8.0,85,0.00,,---,0.00,VWS V14.01,2013-01-09 12:11:00,
2013-01-09 06:17:00,29.1,25.2,30.29,SSW,211,4.0,8.0,85,0.00,,---,0.00,VWS V14.01,2013-01-09 12:17:00,
2013-01-09 06:23:00,29.0,25.1,30.29,SSW,212,0.0,8.0,85,0.00,,---,0.00,VWS V14.01,2013-01-09 12:23:00,
2013-01-09 06:29:00,28.8,24.6,30.30,SSW,211,0.0,8.0,84,0.00,,---,0.00,VWS V14.01,2013-01-09 12:29:00,
2013-01-09 06:35:00,28.7,24.8,30.31,SSW,209,0.0,2.0,85,0.00,,---,0.00,VWS V14.01,2013-01-09 12:35:00,
2013-01-09 06:41:00,28.5,24.3,30.31,SSW,209,0.0,2.0,84,0.00,,---,0.00,VWS V14.01,2013-01-09 12:41:00,
2013-01-09 06:48:00,28.1,23.9,30.31,SSW,209,0.0,2.0,84,0.00,,---,0.00,VWS V14.01,2013-01-09 12:48:00,
2013-01-09 06:54:00,27.8,23.6,30.31,SSW,209,3.0,4.0,84,0.00,,---,0.00,VWS V14.01,2013-01-09 12:54:00,
2013-01-09 07:00:00,27.3,23.4,30.31,SSW,209,0.0,4.0,85,0.00,,---,0.00,VWS V14.01,2013-01-09 13:00:00,
2013-01-09 07:06:00,26.9,23.0,30.31,SSW,210,0.0,0.0,85,0.00,,---,0.00,VWS V14.01,2013-01-09 13:06:00,
2013-01-09 07:12:00,26.5,22.6,30.30,SSW,210,0.0,0.0,85,0.00,,---,0.00,VWS V14.01,2013-01-09 13:12:00,
2013-01-09 07:18:00,26.2,22.3,30.31,SSW,210,0.0,0.0,85,0.00,,---,0.00,VWS V14.01,2013-01-09 13:18:00,
2013-01-09 07:24:00,26.3,22.7,30.32,SSW,210,0.0,0.0,86,0.00,,---,0.00,VWS V14.01,2013-01-09 13:24:00,
2013-01-09 07:30:00,27.0,23.6,30.33,SW,215,1.0,3.0,87,0.00,,---,0.00,VWS V14.01,2013-01-09 13:30:00,
2013-01-09 07:36:00,27.6,24.2,30.34,SW,217,9.0,9.0,87,0.00,,---,0.00,VWS V14.01,2013-01-09 13:36:00,
2013-01-09 07:42:00,27.4,23.8,30.35,SSW,210,7.0,9.0,86,0.00,,---,0.00,VWS V14.01,2013-01-09 13:42:00,
2013-01-09 07:48:00,27.6,24.0,30.35,SW,214,6.0,9.0,86,0.00,,---,0.00,VWS V14.01,2013-01-09 13:48:00,
2013-01-09 07:54:00,27.2,23.3,30.36,SW,215,8.0,9.0,85,0.00,,---,0.00,VWS V14.01,2013-01-09 13:54:00,
2013-01-09 08:00:00,27.1,23.5,30.38,SW,218,11.0,12.0,86,0.00,,---,0.00,VWS V14.01,2013-01-09 14:00:00,
2013-01-09 08:06:00,27.6,24.0,30.38,SW,214,7.0,12.0,86,0.00,,---,0.00,VWS V14.01,2013-01-09 14:06:00,
2013-01-09 08:12:00,27.3,23.4,30.40,SSW,207,6.0,12.0,85,0.00,,---,0.00,VWS V14.01,2013-01-09 14:12:00,
2013-01-09 08:18:00,27.4,23.8,30.40,SSW,213,2.0,12.0,86,0.00,,---,0.00,VWS V14.01,2013-01-09 14:18:00,
2013-01-09 08:24:00,27.5,23.9,30.40,SSW,212,4.0,12.0,86,0.00,,---,0.00,VWS V14.01,2013-01-09 14:24:00,
2013-01-09 08:31:00,27.4,23.8,30.43,SW,215,12.0,14.0,86,0.00,,---,0.00,VWS V14.01,2013-01-09 14:31:00,
2013-01-09 08:37:00,27.9,24.3,30.43,SW,221,11.0,13.0,86,0.00,,---,0.00,VWS V14.01,2013-01-09 14:37:00,
2013-01-09 08:43:00,28.3,24.7,30.45,SW,223,12.0,13.0,86,0.00,,---,0.00,VWS V14.01,2013-01-09 14:43:00,
2013-01-09 08:49:00,28.5,24.6,30.44,SSW,213,1.0,13.0,85,0.00,,---,0.00,VWS V14.01,2013-01-09 14:49:00,
2013-01-09 08:55:00,28.8,26.8,30.45,SSW,213,0.0,13.0,92,0.00,,---,0.00,VWS V14.01,2013-01-09 14:55:00,
2013-01-09 09:01:00,28.9,25.0,30.45,SW,215,4.0,13.0,85,0.00,,---,0.00,VWS V14.01,2013-01-09 15:01:00,
2013-01-09 09:07:00,28.8,24.9,30.46,SSW,213,9.0,9.0,85,0.00,,---,0.00,VWS V14.01,2013-01-09 15:07:00,
2013-01-09 09:13:00,29.3,25.4,30.46,SW,218,7.0,10.0,85,0.00,,---,0.00,VWS V14.01,2013-01-09 15:13:00,
2013-01-09 09:19:00,29.7,25.5,30.46,SW,219,0.0,10.0,84,0.00,,---,0.00,VWS V14.01,2013-01-09 15:19:00,
2013-01-09 09:25:00,29.8,25.6,30.45,SW,214,0.0,10.0,84,0.00,,---,0.00,VWS V14.01,2013-01-09 15:25:00,
2013-01-09 09:31:00,29.8,25.6,30.45,SW,215,0.0,10.0,84,0.00,,---,0.00,VWS V14.01,2013-01-09 15:31:00,
2013-01-09 09:37:00,29.8,25.6,30.45,SW,214,0.0,0.0,84,0.00,,---,0.00,VWS V14.01,2013-01-09 15:37:00,
2013-01-09 09:43:00,29.7,25.5,30.46,SW,216,0.0,1.0,84,0.00,,---,0.00,VWS V14.01,2013-01-09 15:43:00,
2013-01-09 09:49:00,29.8,25.6,30.46,SW,216,0.0,1.0,84,0.00,,---,0.00,VWS V14.01,2013-01-09 15:49:00,
2013-01-09 09:55:00,30.0,25.8,30.46,SW,215,0.0,1.0,84,0.00,,---,0.00,VWS V14.01,2013-01-09 15:55:00,
2013-01-09 10:01:00,30.1,25.9,30.47,SW,216,0.0,2.0,84,0.00,,---,0.00,VWS V14.01,2013-01-09 16:01:00,
2013-01-09 10:07:00,30.2,26.0,30.47,SW,216,1.0,3.0,84,0.00,,---,0.00,VWS V14.01,2013-01-09 16:07:00,
2013-01-09 10:13:00,30.2,26.0,30.47,SW,219,0.0,3.0,84,0.00,,---,0.00,VWS V14.01,2013-01-09 16:13:00,
2013-01-09 10:19:00,30.2,26.0,30.48,SW,219,0.0,3.0,84,0.00,,---,0.00,VWS V14.01,2013-01-09 16:19:00,
2013-01-09 10:25:00,30.1,25.9,30.48,SW,219,0.0,3.0,84,0.00,,---,0.00,VWS V14.01,2013-01-09 16:25:00,
2013-01-09 10:36:00,30.5,26.2,30.47,SW,218,0.0,0.0,84,0.00,,---,0.00,VWS V14.01,2013-01-09 16:36:00,
2013-01-09 10:42:00,30.8,26.5,30.47,SW,219,0.0,0.0,84,0.00,,---,0.00,VWS V14.01,2013-01-09 16:42:00,
2013-01-09 10:48:00,31.2,26.9,30.47,SW,218,0.0,0.0,84,0.00,,---,0.00,VWS V14.01,2013-01-09 16:48:00,
2013-01-09 10:54:00,31.5,26.9,30.47,SW,218,0.0,1.0,83,0.00,,---,0.00,VWS V14.01,2013-01-09 16:54:00,
2013-01-09 11:00:00,31.5,26.9,30.46,SW,219,0.0,2.0,83,0.00,,---,0.00,VWS V14.01,2013-01-09 17:00:00,
2013-01-09 11:06:00,31.8,27.2,30.46,SW,219,0.0,0.0,83,0.00,,---,0.00,VWS V14.01,2013-01-09 17:06:00,
2013-01-09 11:12:00,32.2,27.6,30.46,SW,219,0.0,0.0,83,0.00,,---,0.00,VWS V14.01,2013-01-09 17:12:00,
2013-01-09 11:18:00,32.6,27.7,30.45,SW,219,0.0,0.0,82,0.00,,---,0.00,VWS V14.01,2013-01-09 17:18:00,
2013-01-09 11:24:00,32.8,27.9,30.45,SW,219,0.0,0.0,82,0.00,,---,0.00,VWS V14.01,2013-01-09 17:24:00,
2013-01-09 11:30:00,33.0,28.1,30.45,SW,219,0.0,0.0,82,0.00,,---,0.00,VWS V14.01,2013-01-09 17:30:00,
2013-01-09 11:36:00,33.4,28.5,30.45,SW,218,0.0,0.0,82,0.00,,---,0.00,VWS V14.01,2013-01-09 17:36:00,
2013-01-09 11:42:00,33.8,28.9,30.45,SW,218,0.0,0.0,82,0.00,,---,0.00,VWS V14.01,2013-01-09 17:42:00,
2013-01-09 11:48:00,34.4,29.2,30.44,SW,218,0.0,0.0,81,0.00,,---,0.00,VWS V14.01,2013-01-09 17:48:00,
2013-01-09 11:54:00,34.6,29.1,30.44,SW,219,0.0,0.0,80,0.00,,---,0.00,VWS V14.01,2013-01-09 17:54:00,
2013-01-09 12:00:00,34.8,29.3,30.44,SW,219,0.0,0.0,80,0.00,,---,0.00,VWS V14.01,2013-01-09 18:00:00,
2013-01-09 12:07:00,35.3,29.5,30.44,SW,218,0.0,0.0,79,0.00,,---,0.00,VWS V14.01,2013-01-09 18:07:00,
2013-01-09 12:13:00,35.9,30.0,30.44,SW,219,1.0,1.0,79,0.00,,---,0.00,VWS V14.01,2013-01-09 18:13:00,
2013-01-09 12:19:00,36.5,30.3,30.43,SW,219,0.0,1.0,78,0.00,,---,0.00,VWS V14.01,2013-01-09 18:19:00,
2013-01-09 12:25:00,37.1,30.6,30.43,SW,219,0.0,1.0,77,0.00,,---,0.00,VWS V14.01,2013-01-09 18:25:00,
2013-01-09 12:31:00,37.8,31.2,30.43,SW,218,0.0,1.0,77,0.00,,---,0.00,VWS V14.01,2013-01-09 18:31:00,
2013-01-09 12:37:00,38.4,31.2,30.42,SW,219,0.0,0.0,75,0.00,,---,0.00,VWS V14.01,2013-01-09 18:37:00,
2013-01-09 12:43:00,38.7,31.5,30.42,SW,219,0.0,0.0,75,0.00,,---,0.00,VWS V14.01,2013-01-09 18:43:00,
2013-01-09 12:45:00,38.8,31.6,30.41,SW,219,0.0,0.0,75,0.00,,---,0.00,VWS V14.01,2013-01-09 18:45:00,
2013-01-09 12:47:00,38.9,31.3,30.42,SW,219,0.0,0.0,74,0.00,,---,0.00,VWS V14.01,2013-01-09 18:47:00,
2013-01-09 12:49:00,38.9,31.3,30.41,SW,219,0.0,0.0,74,0.00,,---,0.00,VWS V14.01,2013-01-09 18:49:00,
2013-01-09 12:53:00,39.1,31.5,30.41,SW,219,0.0,2.0,74,0.00,,---,0.00,VWS V14.01,2013-01-09 18:53:00,
2013-01-09 12:55:00,39.2,31.6,30.41,SW,218,2.0,2.0,74,0.00,,---,0.00,VWS V14.01,2013-01-09 18:55:00,
2013-01-09 12:57:00,39.3,31.7,30.41,SW,218,1.0,2.0,74,0.00,,---,0.00,VWS V14.01,2013-01-09 18:57:00,
2013-01-09 13:03:00,39.5,31.6,30.41,SW,218,0.0,0.0,73,0.00,,---,0.00,VWS V14.01,2013-01-09 19:03:00,
2013-01-09 13:09:00,39.6,31.7,30.40,SW,219,0.0,1.0,73,0.00,,---,0.00,VWS V14.01,2013-01-09 19:09:00,
2013-01-09 13:15:00,39.6,31.3,30.40,SW,219,0.0,1.0,72,0.00,,---,0.00,VWS V14.01,2013-01-09 19:15:00,
2013-01-09 13:21:00,39.9,31.6,30.40,SW,219,2.0,3.0,72,0.00,,---,0.00,VWS V14.01,2013-01-09 19:21:00,
2013-01-09 13:27:00,40.2,31.6,30.39,SW,219,1.0,3.0,71,0.00,,---,0.00,VWS V14.01,2013-01-09 19:27:00,
2013-01-09 13:33:00,40.5,31.9,30.39,SW,218,3.0,3.0,71,0.00,,---,0.00,VWS V14.01,2013-01-09 19:33:00,
2013-01-09 13:39:00,40.8,31.8,30.39,SW,218,2.0,4.0,70,0.00,,---,0.00,VWS V14.01,2013-01-09 19:39:00,
2013-01-09 13:45:00,41.1,32.1,30.39,SW,219,1.0,4.0,70,0.00,,---,0.00,VWS V14.01,2013-01-09 19:45:00,
2013-01-09 13:51:00,41.8,32.4,30.39,SW,219,0.0,4.0,69,0.00,,---,0.00,VWS V14.01,2013-01-09 19:51:00,
2013-01-09 13:58:00,42.4,33.3,30.38,SW,219,0.0,4.0,70,0.00,,---,0.00,VWS V14.01,2013-01-09 19:58:00,
2013-01-09 14:04:00,43.0,33.2,30.38,SW,219,0.0,0.0,68,0.00,,---,0.00,VWS V14.01,2013-01-09 20:04:00,
2013-01-09 14:10:00,43.6,33.4,30.38,SW,218,0.0,0.0,67,0.00,,---,0.00,VWS V14.01,2013-01-09 20:10:00,
2013-01-09 14:16:00,44.3,33.3,30.38,SW,219,0.0,0.0,65,0.00,,---,0.00,VWS V14.01,2013-01-09 20:16:00,
2013-01-09 14:22:00,44.3,32.9,30.38,SW,219,0.0,0.0,64,0.00,,---,0.00,VWS V14.01,2013-01-09 20:22:00,
2013-01-09 14:28:00,43.8,32.8,30.38,ESE,115,1.0,4.0,65,0.00,,---,0.00,VWS V14.01,2013-01-09 20:28:00,
2013-01-09 14:34:00,43.0,32.8,30.38,ESE,115,1.0,3.0,67,0.00,,---,0.00,VWS V14.01,2013-01-09 20:34:00,
2013-01-09 14:40:00,42.6,32.8,30.38,ESE,115,0.0,3.0,68,0.00,,---,0.00,VWS V14.01,2013-01-09 20:40:00,
2013-01-09 14:46:00,42.4,33.0,30.38,ESE,113,0.0,3.0,69,0.00,,---,0.00,VWS V14.01,2013-01-09 20:46:00,
2013-01-09 14:52:00,42.4,33.3,30.38,ESE,113,0.0,4.0,70,0.00,,---,0.00,VWS V14.01,2013-01-09 20:52:00,
2013-01-09 14:59:00,42.6,33.2,30.38,ESE,113,0.0,4.0,69,0.00,,---,0.00,VWS V14.01,2013-01-09 20:59:00,
2013-01-09 15:05:00,42.4,33.3,30.39,ESE,113,0.0,4.0,70,0.00,,---,0.00,VWS V14.01,2013-01-09 21:05:00,
2013-01-09 15:11:00,42.0,32.9,30.38,ESE,113,0.0,4.0,70,0.00,,---,0.00,VWS V14.01,2013-01-09 21:11:00,
2013-01-09 15:17:00,41.8,33.1,30.38,ESE,113,0.0,4.0,71,0.00,,---,0.00,VWS V14.01,2013-01-09 21:17:00,
2013-01-09 15:23:00,41.8,33.1,30.39,ESE,113,0.0,4.0,71,0.00,,---,0.00,VWS V14.01,2013-01-09 21:23:00,
2013-01-09 15:29:00,41.8,33.1,30.39,ESE,113,0.0,4.0,71,0.00,,---,0.00,VWS V14.01,2013-01-09 21:29:00,
2013-01-09 15:35:00,41.7,33.3,30.38,ESE,113,0.0,0.0,72,0.00,,---,0.00,VWS V14.01,2013-01-09 21:35:00,
2013-01-09 15:41:00,41.6,33.3,30.39,ESE,113,0.0,0.0,72,0.00,,---,0.00,VWS V14.01,2013-01-09 21:41:00,
2013-01-09 15:47:00,41.8,33.1,30.38,ESE,113,0.0,0.0,71,0.00,,---,0.00,VWS V14.01,2013-01-09 21:47:00,
2013-01-09 15:53:00,41.9,33.2,30.38,ESE,113,0.0,0.0,71,0.00,,---,0.00,VWS V14.01,2013-01-09 21:53:00,
2013-01-09 15:59:00,42.0,33.3,30.38,ESE,113,0.0,0.0,71,0.00,,---,0.00,VWS V14.01,2013-01-09 21:59:00,
2013-01-09 16:05:00,42.1,33.4,30.38,ESE,113,0.0,0.0,71,0.00,,---,0.00,VWS V14.01,2013-01-09 22:05:00,
2013-01-09 16:11:00,42.1,33.4,30.37,ESE,113,0.0,0.0,71,0.00,,---,0.00,VWS V14.01,2013-01-09 22:11:00,
2013-01-09 16:17:00,41.8,33.1,30.37,ESE,113,0.0,0.0,71,0.00,,---,0.00,VWS V14.01,2013-01-09 22:17:00,
2013-01-09 16:23:00,41.4,32.7,30.37,ESE,113,0.0,0.0,71,0.00,,---,0.00,VWS V14.01,2013-01-09 22:23:00,
2013-01-09 16:29:00,41.0,32.7,30.37,ESE,113,0.0,0.0,72,0.00,,---,0.00,VWS V14.01,2013-01-09 22:29:00,
2013-01-09 16:35:00,40.7,32.4,30.37,ESE,113,0.0,0.0,72,0.00,,---,0.00,VWS V14.01,2013-01-09 22:35:00,
2013-01-09 16:41:00,40.3,32.3,30.37,ESE,113,0.0,0.0,73,0.00,,---,0.00,VWS V14.01,2013-01-09 22:41:00,
2013-01-09 16:47:00,40.1,32.2,30.37,ESE,113,0.0,0.0,73,0.00,,---,0.00,VWS V14.01,2013-01-09 22:47:00,
2013-01-09 16:53:00,40.0,32.4,30.37,ESE,113,0.0,0.0,74,0.00,,---,0.00,VWS V14.01,2013-01-09 22:53:00,
2013-01-09 16:59:00,39.8,32.2,30.37,ESE,113,0.0,0.0,74,0.00,,---,0.00,VWS V14.01,2013-01-09 22:59:00,
2013-01-09 17:06:00,39.6,32.3,30.37,ESE,113,0.0,0.0,75,0.00,,---,0.00,VWS V14.01,2013-01-09 23:06:00,
2013-01-09 17:12:00,39.5,32.2,30.37,ESE,113,0.0,0.0,75,0.00,,---,0.00,VWS V14.01,2013-01-09 23:12:00,
2013-01-09 17:18:00,39.3,32.0,30.38,ESE,113,0.0,0.0,75,0.00,,---,0.00,VWS V14.01,2013-01-09 23:18:00,
2013-01-09 17:24:00,39.2,32.3,30.37,ESE,113,0.0,0.0,76,0.00,,---,0.00,VWS V14.01,2013-01-09 23:24:00,
2013-01-09 17:30:00,39.3,32.7,30.37,ESE,113,2.0,3.0,77,0.00,,---,0.00,VWS V14.01,2013-01-09 23:30:00,
2013-01-09 17:36:00,39.2,32.6,30.38,ESE,113,3.0,3.0,77,0.00,,---,0.00,VWS V14.01,2013-01-09 23:36:00,
2013-01-09 17:42:00,39.3,32.7,30.38,ESE,113,2.0,3.0,77,0.00,,---,0.00,VWS V14.01,2013-01-09 23:42:00,
2013-01-09 17:48:00,39.2,32.6,30.38,ESE,114,3.0,3.0,77,0.00,,---,0.00,VWS V14.01,2013-01-09 23:48:00,
2013-01-09 17:54:00,39.1,32.8,30.38,ESE,114,1.0,3.0,78,0.00,,---,0.00,VWS V14.01,2013-01-09 23:54:00,
2013-01-09 18:00:00,38.8,32.9,30.37,ESE,114,0.0,4.0,79,0.00,,---,0.00,VWS V14.01,2013-01-10 00:00:00,
2013-01-09 18:06:00,38.7,32.8,30.37,ESE,114,3.0,4.0,79,0.00,,---,0.00,VWS V14.01,2013-01-10 00:06:00,
2013-01-09 18:12:00,38.6,32.7,30.38,ESE,114,2.0,4.0,79,0.00,,---,0.00,VWS V14.01,2013-01-10 00:12:00,
2013-01-09 18:18:00,38.6,33.0,30.37,ESE,114,2.0,4.0,80,0.00,,---,0.00,VWS V14.01,2013-01-10 00:18:00,
2013-01-09 18:24:00,38.4,32.8,30.37,ESE,114,2.0,4.0,80,0.00,,---,0.00,VWS V14.01,2013-01-10 00:24:00,
2013-01-09 18:30:00,38.2,32.6,30.37,ESE,114,2.0,4.0,80,0.00,,---,0.00,VWS V14.01,2013-01-10 00:30:00,
2013-01-09 18:36:00,37.9,32.3,30.37,ESE,114,0.0,2.0,80,0.00,,---,0.00,VWS V14.01,2013-01-10 00:36:00,
2013-01-09 18:42:00,37.7,32.4,30.37,ESE,114,0.0,2.0,81,0.00,,---,0.00,VWS V14.01,2013-01-10 00:42:00,
2013-01-09 18:48:00,37.5,32.2,30.38,ESE,114,0.0,2.0,81,0.00,,---,0.00,VWS V14.01,2013-01-10 00:48:00,
2013-01-09 18:54:00,37.5,32.5,30.38,ESE,114,0.0,2.0,82,0.00,,---,0.00,VWS V14.01,2013-01-10 00:54:00,
2013-01-09 19:00:00,37.7,32.7,30.38,ESE,114,0.0,2.0,82,0.00,,---,0.00,VWS V14.01,2013-01-10 01:00:00,
2013-01-09 19:06:00,37.7,32.7,30.38,ESE,114,0.0,0.0,82,0.00,,---,0.00,VWS V14.01,2013-01-10 01:06:00,
2013-01-09 19:12:00,37.6,32.6,30.38,ESE,114,0.0,0.0,82,0.00,,---,0.00,VWS V14.01,2013-01-10 01:12:00,
2013-01-09 19:19:00,37.7,32.7,30.38,ESE,114,0.0,0.0,82,0.00,,---,0.00,VWS V14.01,2013-01-10 01:19:00,
2013-01-09 19:25:00,37.8,32.8,30.39,ESE,114,0.0,0.0,82,0.00,,---,0.00,VWS V14.01,2013-01-10 01:25:00,
2013-01-09 19:31:00,37.8,32.5,30.39,ESE,114,0.0,0.0,81,0.00,,---,0.00,VWS V14.01,2013-01-10 01:31:00,
2013-01-09 19:37:00,37.8,32.5,30.38,ESE,123,0.0,1.0,81,0.00,,---,0.00,VWS V14.01,2013-01-10 01:37:00,
2013-01-09 19:43:00,37.8,32.5,30.38,ESE,123,0.0,1.0,81,0.00,,---,0.00,VWS V14.01,2013-01-10 01:43:00,
2013-01-09 19:49:00,37.6,32.3,30.38,ESE,123,0.0,1.0,81,0.00,,---,0.00,VWS V14.01,2013-01-10 01:49:00,
2013-01-09 19:55:00,37.5,32.2,30.38,ESE,123,0.0,1.0,81,0.00,,---,0.00,VWS V14.01,2013-01-10 01:55:00,
2013-01-09 20:01:00,37.6,32.0,30.38,ESE,123,0.0,1.0,80,0.00,,---,0.00,VWS V14.01,2013-01-10 02:01:00,
2013-01-09 20:07:00,37.6,32.0,30.38,ESE,123,0.0,0.0,80,0.00,,---,0.00,VWS V14.01,2013-01-10 02:07:00,
2013-01-09 20:13:00,37.6,31.7,30.37,ESE,123,0.0,4.0,79,0.00,,---,0.00,VWS V14.01,2013-01-10 02:13:00,
2013-01-09 20:19:00,37.6,31.7,30.38,ESE,123,2.0,4.0,79,0.00,,---,0.00,VWS V14.01,2013-01-10 02:19:00,
2013-01-09 20:25:00,37.6,31.4,30.37,ESE,123,1.0,4.0,78,0.00,,---,0.00,VWS V14.01,2013-01-10 02:25:00,
2013-01-09 20:31:00,37.6,31.4,30.38,ESE,108,3.0,4.0,78,0.00,,---,0.00,VWS V14.01,2013-01-10 02:31:00,
2013-01-09 20:37:00,37.6,31.1,30.37,ESE,107,2.0,4.0,77,0.00,,---,0.00,VWS V14.01,2013-01-10 02:37:00,
2013-01-09 20:43:00,37.7,31.1,30.37,ESE,107,0.0,4.0,77,0.00,,---,0.00,VWS V14.01,2013-01-10 02:43:00,
2013-01-09 20:49:00,37.6,31.1,30.37,ESE,107,1.0,4.0,77,0.00,,---,0.00,VWS V14.01,2013-01-10 02:49:00,
2013-01-09 20:55:00,37.5,30.6,30.36,ESE,108,3.0,4.0,76,0.00,,---,0.00,VWS V14.01,2013-01-10 02:55:00,
2013-01-09 21:01:00,37.5,30.6,30.36,ESE,108,2.0,4.0,76,0.00,,---,0.00,VWS V14.01,2013-01-10 03:01:00,
2013-01-09 21:07:00,37.5,30.3,30.36,ESE,108,0.0,3.0,75,0.00,,---,0.00,VWS V14.01,2013-01-10 03:07:00,
2013-01-09 21:13:00,37.3,30.1,30.36,ESE,108,0.0,3.0,75,0.00,,---,0.00,VWS V14.01,2013-01-10 03:13:00,
2013-01-09 21:19:00,37.2,30.4,30.36,ESE,108,1.0,3.0,76,0.00,,---,0.00,VWS V14.01,2013-01-10 03:19:00,
2013-01-09 21:25:00,36.8,29.6,30.36,ESE,107,0.0,3.0,75,0.00,,---,0.00,VWS V14.01,2013-01-10 03:25:00,
2013-01-09 21:31:00,36.6,29.8,30.36,ESE,107,0.0,3.0,76,0.00,,---,0.00,VWS V14.01,2013-01-10 03:31:00,
2013-01-09 21:36:00,36.2,29.4,30.36,ESE,108,0.0,2.0,76,0.00,,---,0.00,VWS V14.01,2013-01-10 03:36:00,
2013-01-09 21:42:00,36.1,29.6,30.36,ESE,108,0.0,2.0,77,0.00,,---,0.00,VWS V14.01,2013-01-10 03:42:00,
2013-01-09 21:48:00,35.9,29.4,30.36,ESE,107,0.0,2.0,77,0.00,,---,0.00,VWS V14.01,2013-01-10 03:48:00,
2013-01-09 21:54:00,36.0,29.5,30.36,ESE,108,0.0,2.0,77,0.00,,---,0.00,VWS V14.01,2013-01-10 03:54:00,
2013-01-09 22:00:00,35.9,29.1,30.36,ESE,108,0.0,2.0,76,0.00,,---,0.00,VWS V14.01,2013-01-10 04:00:00,
2013-01-09 22:06:00,35.5,28.7,30.36,ESE,107,0.0,0.0,76,0.00,,---,0.00,VWS V14.01,2013-01-10 04:06:00,
2013-01-09 22:12:00,35.3,28.8,30.36,ESE,108,0.0,0.0,77,0.00,,---,0.00,VWS V14.01,2013-01-10 04:12:00,
2013-01-09 22:18:00,35.4,28.9,30.37,ESE,108,0.0,0.0,77,0.00,,---,0.00,VWS V14.01,2013-01-10 04:18:00,
2013-01-09 22:24:00,35.5,29.0,30.37,ESE,107,0.0,0.0,77,0.00,,---,0.00,VWS V14.01,2013-01-10 04:24:00,
2013-01-09 22:30:00,35.5,28.7,30.37,ESE,108,0.0,0.0,76,0.00,,---,0.00,VWS V14.01,2013-01-10 04:30:00,
2013-01-09 22:36:00,35.5,28.7,30.37,ESE,107,0.0,0.0,76,0.00,,---,0.00,VWS V14.01,2013-01-10 04:36:00,
2013-01-09 22:42:00,36.1,29.3,30.38,ESE,107,0.0,2.0,76,0.00,,---,0.00,VWS V14.01,2013-01-10 04:42:00,
2013-01-09 22:48:00,37.0,29.8,30.38,SE,130,2.0,6.0,75,0.00,,---,0.00,VWS V14.01,2013-01-10 04:48:00,
2013-01-09 22:54:00,37.7,29.8,30.38,SE,146,0.0,6.0,73,0.00,,---,0.00,VWS V14.01,2013-01-10 04:54:00,
2013-01-09 23:00:00,38.0,29.8,30.38,SSE,167,0.0,6.0,72,0.00,,---,0.00,VWS V14.01,2013-01-10 05:00:00,
2013-01-09 23:05:00,38.1,29.9,30.38,SSE,167,0.0,1.0,72,0.00,,---,0.00,VWS V14.01,2013-01-10 05:05:00,
2013-01-09 23:09:00,38.0,29.5,30.38,SSE,167,0.0,2.0,71,0.00,,---,0.00,VWS V14.01,2013-01-10 05:09:00,
2013-01-09 23:15:00,38.0,29.5,30.38,SSE,167,0.0,3.0,71,0.00,,---,0.00,VWS V14.01,2013-01-10 05:15:00,
2013-01-09 23:21:00,38.0,29.5,30.38,SSE,167,0.0,3.0,71,0.00,,---,0.00,VWS V14.01,2013-01-10 05:21:00,
2013-01-09 23:27:00,37.9,29.4,30.38,SSE,167,0.0,3.0,71,0.00,,---,0.00,VWS V14.01,2013-01-10 05:27:00,
2013-01-09 23:29:00,37.8,29.3,30.38,SSE,167,0.0,3.0,71,0.00,,---,0.00,VWS V14.01,2013-01-10 05:29:00,
2013-01-09 23:35:00,37.6,29.1,30.38,SSE,167,0.0,0.0,71,0.00,,---,0.00,VWS V14.01,2013-01-10 05:35:00,
2013-01-09 23:41:00,37.3,28.8,30.36,SSE,167,0.0,0.0,71,0.00,,---,0.00,VWS V14.01,2013-01-10 05:41:00,
2013-01-09 23:47:00,37.0,28.5,30.37,SSE,167,0.0,0.0,71,0.00,,---,0.00,VWS V14.01,2013-01-10 05:47:00,
2013-01-09 23:53:00,36.5,28.4,30.36,SSE,167,0.0,0.0,72,0.00,,---,0.00,VWS V14.01,2013-01-10 05:53:00,
2013-01-09 23:59:00,35.9,27.8,30.36,SSE,167,0.0,0.0,72,0.00,,---,0.00,VWS V14.01,2013-01-10 05:59:00,